createdAt,value
2017-09-25T00:00:13.582Z,15.5
2017-09-25T00:01:14.982Z,15.6
2017-09-25T00:02:16.389Z,15.5
2017-09-25T00:03:17.814Z,15.5
2017-09-25T00:04:19.231Z,15.5
2017-09-25T00:05:20.616Z,15.5
2017-09-25T00:06:22.019Z,15.5
2017-09-25T00:07:23.432Z,15.4
2017-09-25T00:08:24.830Z,15.5
2017-09-25T00:09:26.239Z,15.5
2017-09-25T00:10:27.661Z,15.4
2017-09-25T00:11:29.058Z,15.5
2017-09-25T00:12:30.457Z,15.5
2017-09-25T00:13:31.863Z,15.4
2017-09-25T00:14:33.277Z,15.4
2017-09-25T00:15:34.677Z,15.5
2017-09-25T00:16:36.077Z,15.4
2017-09-25T00:17:37.479Z,15.4
2017-09-25T00:18:38.878Z,15.4
2017-09-25T00:19:40.279Z,15.4
2017-09-25T00:20:41.683Z,15.4
2017-09-25T00:21:43.093Z,15.4
2017-09-25T00:22:44.492Z,15.5
2017-09-25T00:23:45.896Z,15.6
2017-09-25T00:24:47.300Z,15.6
2017-09-25T00:25:48.697Z,15.6
2017-09-25T00:26:50.116Z,15.6
2017-09-25T00:27:51.530Z,15.6
2017-09-25T00:28:52.937Z,15.7
2017-09-25T00:29:54.347Z,15.6
2017-09-25T00:30:55.750Z,15.6
2017-09-25T00:31:57.159Z,15.6
2017-09-25T00:32:58.556Z,15.6
2017-09-25T00:33:59.956Z,15.7
2017-09-25T00:35:01.388Z,15.6
2017-09-25T00:36:02.795Z,15.6
2017-09-25T00:37:04.202Z,15.6
2017-09-25T00:38:05.606Z,15.7
2017-09-25T00:39:07.014Z,15.7
2017-09-25T00:40:08.416Z,15.6
2017-09-25T00:41:09.818Z,15.6
2017-09-25T00:42:11.229Z,15.6
2017-09-25T00:43:12.636Z,15.6
2017-09-25T00:44:14.048Z,15.6
2017-09-25T00:45:15.452Z,15.6
2017-09-25T00:46:16.848Z,15.6
2017-09-25T00:47:18.245Z,15.6
2017-09-25T00:48:19.645Z,15.6
2017-09-25T00:49:21.059Z,15.6
2017-09-25T00:50:22.459Z,15.6
2017-09-25T00:51:23.864Z,15.7
2017-09-25T00:52:25.260Z,15.7
2017-09-25T00:53:26.658Z,15.6
2017-09-25T00:54:28.057Z,15.7
2017-09-25T00:55:29.457Z,15.6
2017-09-25T00:56:30.853Z,15.6
2017-09-25T00:57:32.256Z,15.7
2017-09-25T00:58:33.655Z,15.7
2017-09-25T00:59:35.102Z,15.6
2017-09-25T01:00:36.513Z,15.7
2017-09-25T01:01:37.912Z,15.7
2017-09-25T01:02:39.320Z,15.7
2017-09-25T01:03:40.718Z,15.7
2017-09-25T01:04:42.135Z,15.7
2017-09-25T01:05:43.535Z,15.8
2017-09-25T01:06:44.944Z,15.7
2017-09-25T01:07:46.335Z,15.7
2017-09-25T01:08:47.733Z,15.7
2017-09-25T01:09:49.134Z,15.7
2017-09-25T01:10:50.536Z,15.7
2017-09-25T01:11:51.947Z,15.7
2017-09-25T01:12:53.351Z,15.6
2017-09-25T01:13:54.753Z,15.7
2017-09-25T01:14:56.153Z,15.6
2017-09-25T01:15:57.565Z,15.6
2017-09-25T01:16:58.965Z,15.6
2017-09-25T01:18:00.368Z,15.7
2017-09-25T01:19:01.763Z,15.6
2017-09-25T01:20:03.169Z,15.6
2017-09-25T01:21:04.563Z,15.4
2017-09-25T01:22:05.976Z,15.5
2017-09-25T01:23:07.381Z,15.5
2017-09-25T01:24:08.785Z,15.4
2017-09-25T01:25:10.314Z,15.5
2017-09-25T01:26:11.713Z,15.4
2017-09-25T01:27:13.117Z,15.4
2017-09-25T01:28:14.511Z,15.5
2017-09-25T01:29:15.909Z,15.4
2017-09-25T01:30:17.328Z,15.4
2017-09-25T01:31:18.729Z,15.4
2017-09-25T01:32:20.130Z,15.4
2017-09-25T01:33:21.536Z,15.5
2017-09-25T01:34:22.941Z,15.5
2017-09-25T01:35:24.361Z,15.4
2017-09-25T01:36:25.758Z,15.4
2017-09-25T01:37:27.155Z,15.4
2017-09-25T01:38:28.560Z,15.3
2017-09-25T01:39:29.954Z,15.4
2017-09-25T01:40:31.354Z,15.3
2017-09-25T01:41:32.755Z,15.3
2017-09-25T01:42:34.164Z,15.3
2017-09-25T01:43:35.563Z,15.2
2017-09-25T01:44:36.970Z,15.3
2017-09-25T01:45:38.384Z,15.3
2017-09-25T01:46:40.289Z,15.3
2017-09-25T01:47:41.760Z,15.3
2017-09-25T01:48:43.164Z,15.4
2017-09-25T01:49:44.557Z,15.4
2017-09-25T01:50:45.990Z,15.3
2017-09-25T01:51:47.394Z,15.4
2017-09-25T01:52:48.797Z,15.5
2017-09-25T01:53:50.196Z,15.5
2017-09-25T01:54:51.593Z,15.6
2017-09-25T01:55:53.001Z,15.6
2017-09-25T01:56:54.401Z,15.6
2017-09-25T01:57:55.805Z,15.6
2017-09-25T01:58:57.218Z,15.6
2017-09-25T01:59:58.629Z,15.6
2017-09-25T02:01:00.024Z,15.5
2017-09-25T02:02:01.442Z,15.5
2017-09-25T02:03:02.862Z,15.6
2017-09-25T02:04:04.258Z,15.6
2017-09-25T02:05:05.665Z,15.6
2017-09-25T02:06:07.076Z,15.6
2017-09-25T02:07:08.472Z,15.6
2017-09-25T02:08:09.875Z,15.6
2017-09-25T02:09:11.276Z,15.6
2017-09-25T02:10:12.712Z,15.6
2017-09-25T02:11:14.108Z,15.6
2017-09-25T02:12:15.512Z,15.6
2017-09-25T02:13:16.918Z,15.6
2017-09-25T02:14:18.319Z,15.6
2017-09-25T02:15:19.714Z,15.6
2017-09-25T02:16:21.112Z,15.6
2017-09-25T02:17:22.510Z,15.6
2017-09-25T02:18:23.912Z,15.6
2017-09-25T02:19:25.309Z,15.6
2017-09-25T02:20:26.706Z,15.6
2017-09-25T02:21:28.106Z,15.6
2017-09-25T02:22:29.509Z,15.6
2017-09-25T02:23:30.911Z,15.6
2017-09-25T02:24:32.317Z,15.6
2017-09-25T02:25:33.715Z,15.6
2017-09-25T02:26:35.114Z,15.6
2017-09-25T02:27:36.549Z,15.6
2017-09-25T02:28:37.925Z,15.7
2017-09-25T02:29:39.329Z,15.6
2017-09-25T02:30:40.744Z,15.6
2017-09-25T02:31:42.183Z,15.6
2017-09-25T02:32:43.548Z,15.6
2017-09-25T02:33:44.957Z,15.6
2017-09-25T02:34:46.358Z,15.5
2017-09-25T02:35:47.795Z,15.5
2017-09-25T02:36:49.194Z,15.5
2017-09-25T02:37:50.602Z,15.4
2017-09-25T02:38:52.013Z,15.4
2017-09-25T02:39:53.411Z,15.5
2017-09-25T02:40:54.826Z,15.4
2017-09-25T02:41:56.243Z,15.3
2017-09-25T02:42:57.643Z,15.4
2017-09-25T02:43:59.049Z,15.3
2017-09-25T02:45:00.455Z,15.5
2017-09-25T02:46:01.868Z,15.5
2017-09-25T02:47:03.356Z,15.3
2017-09-25T02:48:04.758Z,15.4
2017-09-25T02:49:06.157Z,15.4
2017-09-25T02:50:07.563Z,15.5
2017-09-25T02:51:08.962Z,15.5
2017-09-25T02:52:10.374Z,15.5
2017-09-25T02:53:11.784Z,15.5
2017-09-25T02:54:13.192Z,15.5
2017-09-25T02:55:14.588Z,15.4
2017-09-25T02:56:15.996Z,15.4
2017-09-25T02:57:17.388Z,15.4
2017-09-25T02:58:18.786Z,15.5
2017-09-25T02:59:20.185Z,15.4
2017-09-25T03:00:21.591Z,15.4
2017-09-25T03:01:22.997Z,15.3
2017-09-25T03:02:24.420Z,15.4
2017-09-25T03:03:25.808Z,15.5
2017-09-25T03:04:27.221Z,15.5
2017-09-25T03:05:28.619Z,15.5
2017-09-25T03:06:30.025Z,15.4
2017-09-25T03:07:31.436Z,15.4
2017-09-25T03:08:32.832Z,15.4
2017-09-25T03:09:34.228Z,15.5
2017-09-25T03:10:35.646Z,15.5
2017-09-25T03:11:37.044Z,15.6
2017-09-25T03:12:38.444Z,15.6
2017-09-25T03:13:39.851Z,15.7
2017-09-25T03:14:41.258Z,15.6
2017-09-25T03:15:42.661Z,15.6
2017-09-25T03:16:44.055Z,15.6
2017-09-25T03:17:45.482Z,15.6
2017-09-25T03:18:46.922Z,15.6
2017-09-25T03:19:48.328Z,15.6
2017-09-25T03:20:49.741Z,15.6
2017-09-25T03:21:51.145Z,15.6
2017-09-25T03:22:52.540Z,15.6
2017-09-25T03:23:53.952Z,15.6
2017-09-25T03:24:55.351Z,15.6
2017-09-25T03:25:56.754Z,15.6
2017-09-25T03:26:58.168Z,15.6
2017-09-25T03:27:59.577Z,15.6
2017-09-25T03:29:00.976Z,15.6
2017-09-25T03:30:02.382Z,15.6
2017-09-25T03:31:03.787Z,15.5
2017-09-25T03:32:05.190Z,15.6
2017-09-25T03:33:06.603Z,15.6
2017-09-25T03:34:08.009Z,15.6
2017-09-25T03:35:09.413Z,15.6
2017-09-25T03:36:10.840Z,15.6
2017-09-25T03:37:12.245Z,15.6
2017-09-25T03:38:13.659Z,15.6
2017-09-25T03:39:15.087Z,15.6
2017-09-25T03:40:16.509Z,15.6
2017-09-25T03:41:17.907Z,15.6
2017-09-25T03:42:19.314Z,15.6
2017-09-25T03:43:20.713Z,15.6
2017-09-25T03:44:22.109Z,15.6
2017-09-25T03:45:23.512Z,15.5
2017-09-25T03:46:24.923Z,15.5
2017-09-25T03:47:26.320Z,15.4
2017-09-25T03:48:27.720Z,15.3
2017-09-25T03:49:29.122Z,15.4
2017-09-25T03:50:30.521Z,15.4
2017-09-25T03:51:31.927Z,15.5
2017-09-25T03:52:33.316Z,15.5
2017-09-25T03:53:34.718Z,15.4
2017-09-25T03:54:36.119Z,15.4
2017-09-25T03:55:37.517Z,15.4
2017-09-25T03:56:38.941Z,15.4
2017-09-25T03:57:40.334Z,15.3
2017-09-25T03:58:41.747Z,15.3
2017-09-25T03:59:43.163Z,15.3
2017-09-25T04:00:44.570Z,15.3
2017-09-25T04:01:45.975Z,15.3
2017-09-25T04:02:47.374Z,15.3
2017-09-25T04:03:48.818Z,15.2
2017-09-25T04:04:50.220Z,15.2
2017-09-25T04:05:51.619Z,15.3
2017-09-25T04:06:53.033Z,15.3
2017-09-25T04:07:54.433Z,15.3
2017-09-25T04:08:56.055Z,15.2
2017-09-25T04:09:57.451Z,15.2
2017-09-25T04:10:58.851Z,15.3
2017-09-25T04:12:00.250Z,15.3
2017-09-25T04:13:01.648Z,15.3
2017-09-25T04:14:03.046Z,15.3
2017-09-25T04:15:05.371Z,15.2
2017-09-25T04:16:06.769Z,15.2
2017-09-25T04:17:08.179Z,15.3
2017-09-25T04:18:09.579Z,15.3
2017-09-25T04:19:11.075Z,15.3
2017-09-25T04:20:12.492Z,15.3
2017-09-25T04:21:13.899Z,15.3
2017-09-25T04:22:15.294Z,15.4
2017-09-25T04:23:16.697Z,15.4
2017-09-25T04:24:18.093Z,15.4
2017-09-25T04:25:19.495Z,15.4
2017-09-25T04:26:20.895Z,15.4
2017-09-25T04:27:22.294Z,15.4
2017-09-25T04:28:23.690Z,15.3
2017-09-25T04:29:25.106Z,15.4
2017-09-25T04:30:26.498Z,15.4
2017-09-25T04:31:27.906Z,15.4
2017-09-25T04:32:29.307Z,15.4
2017-09-25T04:33:30.792Z,15.4
2017-09-25T04:34:32.191Z,15.4
2017-09-25T04:35:33.587Z,15.4
2017-09-25T04:36:34.990Z,15.4
2017-09-25T04:37:36.386Z,15.4
2017-09-25T04:38:37.784Z,15.4
2017-09-25T04:39:39.186Z,15.5
2017-09-25T04:40:40.599Z,15.5
2017-09-25T04:41:42.015Z,15.6
2017-09-25T04:42:43.410Z,15.6
2017-09-25T04:43:44.807Z,15.6
2017-09-25T04:44:46.225Z,15.6
2017-09-25T04:45:47.635Z,15.6
2017-09-25T04:46:49.034Z,15.6
2017-09-25T04:47:50.443Z,15.6
2017-09-25T04:48:51.849Z,15.6
2017-09-25T04:49:53.249Z,15.5
2017-09-25T04:50:54.646Z,15.4
2017-09-25T04:51:56.048Z,15.5
2017-09-25T04:52:57.506Z,15.4
2017-09-25T04:53:58.938Z,15.5
2017-09-25T04:55:00.324Z,15.5
2017-09-25T04:56:01.736Z,15.5
2017-09-25T04:57:04.665Z,15.4
2017-09-25T04:58:06.104Z,15.5
2017-09-25T04:59:07.531Z,15.5
2017-09-25T05:00:09.004Z,15.4
2017-09-25T05:01:10.477Z,15.5
2017-09-25T05:02:11.994Z,15.6
2017-09-25T05:03:13.554Z,15.5
2017-09-25T05:04:15.078Z,15.5
2017-09-25T05:05:16.652Z,15.4
2017-09-25T05:06:18.176Z,15.6
2017-09-25T05:07:19.665Z,15.5
2017-09-25T05:08:21.184Z,15.6
2017-09-25T05:09:22.692Z,15.5
2017-09-25T05:10:24.261Z,15.5
2017-09-25T05:11:25.810Z,15.5
2017-09-25T05:12:27.310Z,15.5
2017-09-25T05:13:28.852Z,15.4
2017-09-25T05:14:30.404Z,15.4
2017-09-25T05:15:31.901Z,15.3
2017-09-25T05:16:33.356Z,15.3
2017-09-25T05:17:34.823Z,15.3
2017-09-25T05:18:36.274Z,15.4
2017-09-25T05:19:37.752Z,15.3
2017-09-25T05:20:39.192Z,15.2
2017-09-25T05:21:40.642Z,15.2
2017-09-25T05:22:42.083Z,15.2
2017-09-25T05:23:43.551Z,15.3
2017-09-25T05:24:45.008Z,15.3
2017-09-25T05:25:46.452Z,15.2
2017-09-25T05:26:47.888Z,15.2
2017-09-25T05:27:49.335Z,15.2
2017-09-25T05:28:50.804Z,15.2
2017-09-25T05:29:52.241Z,15.2
2017-09-25T05:30:53.684Z,15.2
2017-09-25T05:31:55.143Z,15.2
2017-09-25T05:32:57.418Z,15.2
2017-09-25T05:33:58.851Z,15.2
2017-09-25T05:35:00.278Z,15.2
2017-09-25T05:36:01.697Z,15.2
2017-09-25T05:37:03.110Z,15.2
2017-09-25T05:38:04.539Z,15.2
2017-09-25T05:39:05.987Z,15.2
2017-09-25T05:40:07.552Z,15.1
2017-09-25T05:41:09.175Z,15.2
2017-09-25T05:42:10.693Z,15.2
2017-09-25T05:43:12.147Z,15.2
2017-09-25T05:44:13.721Z,15.2
2017-09-25T05:45:15.299Z,15.2
2017-09-25T05:46:16.859Z,15.2
2017-09-25T05:47:18.378Z,15.3
2017-09-25T05:48:19.933Z,15.3
2017-09-25T05:49:21.496Z,15.3
2017-09-25T05:50:23.105Z,15.3
2017-09-25T05:51:24.669Z,15.3
2017-09-25T05:52:26.192Z,15.3
2017-09-25T05:53:27.627Z,15.3
2017-09-25T05:54:29.195Z,15.4
2017-09-25T05:55:30.733Z,15.4
2017-09-25T05:56:32.281Z,15.4
2017-09-25T05:57:33.810Z,15.5
2017-09-25T05:58:35.335Z,15.5
2017-09-25T05:59:36.864Z,15.4
2017-09-25T06:00:38.377Z,15.5
2017-09-25T06:01:39.888Z,15.4
2017-09-25T06:02:41.445Z,15.5
2017-09-25T06:03:42.982Z,15.5
2017-09-25T06:04:44.464Z,15.5
2017-09-25T06:05:46.052Z,15.6
2017-09-25T06:06:47.653Z,15.6
2017-09-25T06:07:49.143Z,15.6
2017-09-25T06:08:50.718Z,15.6
2017-09-25T06:09:52.249Z,15.6
2017-09-25T06:10:53.771Z,15.6
2017-09-25T06:11:55.354Z,15.6
2017-09-25T06:12:56.839Z,15.6
2017-09-25T06:13:58.320Z,15.6
2017-09-25T06:14:59.822Z,15.6
2017-09-25T06:16:01.353Z,15.5
2017-09-25T06:17:02.991Z,15.6
2017-09-25T06:18:04.481Z,15.6
2017-09-25T06:19:05.991Z,15.6
2017-09-25T06:20:07.458Z,15.6
2017-09-25T06:21:08.916Z,15.6
2017-09-25T06:22:10.427Z,15.6
2017-09-25T06:23:11.929Z,15.6
2017-09-25T06:24:13.406Z,15.6
2017-09-25T06:25:14.847Z,15.6
2017-09-25T06:26:16.341Z,15.6
2017-09-25T06:27:17.836Z,15.6
2017-09-25T06:28:19.295Z,15.6
2017-09-25T06:29:20.739Z,15.6
2017-09-25T06:30:22.196Z,15.5
2017-09-25T06:31:23.672Z,15.6
2017-09-25T06:32:25.115Z,15.6
2017-09-25T06:33:26.625Z,15.6
2017-09-25T06:34:28.131Z,15.6
2017-09-25T06:35:29.647Z,15.5
2017-09-25T06:36:31.162Z,15.6
2017-09-25T06:37:32.643Z,15.6
2017-09-25T06:38:34.165Z,15.7
2017-09-25T06:39:35.770Z,15.6
2017-09-25T06:40:37.249Z,15.6
2017-09-25T06:41:38.829Z,15.6
2017-09-25T06:42:40.405Z,15.6
2017-09-25T06:43:41.991Z,15.6
2017-09-25T06:44:43.535Z,15.7
2017-09-25T06:45:45.015Z,15.8
2017-09-25T06:46:46.601Z,15.7
2017-09-25T06:47:48.174Z,15.7
2017-09-25T06:48:49.720Z,15.8
2017-09-25T06:49:51.255Z,15.8
2017-09-25T06:50:52.821Z,15.8
2017-09-25T06:51:54.357Z,15.9
2017-09-25T06:52:55.904Z,15.9
2017-09-25T06:53:57.499Z,15.9
2017-09-25T06:54:59.036Z,15.9
2017-09-25T06:56:00.633Z,15.9
2017-09-25T06:57:02.275Z,15.8
2017-09-25T06:58:03.877Z,15.8
2017-09-25T06:59:05.446Z,15.9
2017-09-25T07:00:06.986Z,15.9
2017-09-25T07:01:08.546Z,15.9
2017-09-25T07:02:10.129Z,16.0
2017-09-25T07:03:11.661Z,16.0
2017-09-25T07:04:13.208Z,16.2
2017-09-25T07:05:14.750Z,16.1
2017-09-25T07:06:16.329Z,16.1
2017-09-25T07:07:17.898Z,16.0
2017-09-25T07:08:19.471Z,16.1
2017-09-25T07:09:21.019Z,16.1
2017-09-25T07:10:22.559Z,16.1
2017-09-25T07:11:24.077Z,16.1
2017-09-25T07:12:25.649Z,16.1
2017-09-25T07:13:27.212Z,16.2
2017-09-25T07:14:28.765Z,16.2
2017-09-25T07:15:30.286Z,16.1
2017-09-25T07:16:31.845Z,16.2
2017-09-25T07:17:33.397Z,16.2
2017-09-25T07:18:34.934Z,16.2
2017-09-25T07:19:36.480Z,16.1
2017-09-25T07:20:38.040Z,16.1
2017-09-25T07:21:39.601Z,16.1
2017-09-25T07:22:41.135Z,16.1
2017-09-25T07:23:42.755Z,16.2
2017-09-25T07:24:44.313Z,16.2
2017-09-25T07:25:45.931Z,16.3
2017-09-25T07:26:47.631Z,16.3
2017-09-25T07:27:49.202Z,16.2
2017-09-25T07:28:50.743Z,16.2
2017-09-25T07:29:52.286Z,16.3
2017-09-25T07:30:53.864Z,16.3
2017-09-25T07:31:55.578Z,16.3
2017-09-25T07:32:57.158Z,16.3
2017-09-25T07:33:58.733Z,16.4
2017-09-25T07:35:00.269Z,16.3
2017-09-25T07:36:01.842Z,16.4
2017-09-25T07:37:03.368Z,16.4
2017-09-25T07:38:04.898Z,16.4
2017-09-25T07:39:06.432Z,16.5
2017-09-25T07:40:07.969Z,16.5
2017-09-25T07:41:09.485Z,16.5
2017-09-25T07:42:11.057Z,16.6
2017-09-25T07:43:12.557Z,16.7
2017-09-25T07:44:14.104Z,16.7
2017-09-25T07:45:15.628Z,16.7
2017-09-25T07:46:17.224Z,16.7
2017-09-25T07:47:18.804Z,16.7
2017-09-25T07:48:20.330Z,16.7
2017-09-25T07:49:21.926Z,16.7
2017-09-25T07:50:23.468Z,16.7
2017-09-25T07:51:25.034Z,16.7
2017-09-25T07:52:26.636Z,16.8
2017-09-25T07:53:28.180Z,16.9
2017-09-25T07:54:29.802Z,16.9
2017-09-25T07:55:31.339Z,16.8
2017-09-25T07:56:32.919Z,16.8
2017-09-25T07:57:34.451Z,16.8
2017-09-25T07:58:35.962Z,16.8
2017-09-25T07:59:37.512Z,16.7
2017-09-25T08:00:39.037Z,16.7
2017-09-25T08:01:40.620Z,16.8
2017-09-25T08:02:42.127Z,16.8
2017-09-25T08:03:43.669Z,16.7
2017-09-25T08:04:45.201Z,16.7
2017-09-25T08:05:47.207Z,16.7
2017-09-25T08:06:49.103Z,16.8
2017-09-25T08:07:51.076Z,16.8
2017-09-25T08:08:52.935Z,16.7
2017-09-25T08:09:54.456Z,16.8
2017-09-25T08:10:56.009Z,16.7
2017-09-25T08:11:57.545Z,16.7
2017-09-25T08:12:59.078Z,16.8
2017-09-25T08:14:00.618Z,16.7
2017-09-25T08:15:02.120Z,16.7
2017-09-25T08:16:03.654Z,16.7
2017-09-25T08:17:05.190Z,16.7
2017-09-25T08:18:06.727Z,16.7
2017-09-25T08:19:08.257Z,16.7
2017-09-25T08:20:09.755Z,16.7
2017-09-25T08:21:11.262Z,16.7
2017-09-25T08:22:12.776Z,16.7
2017-09-25T08:23:14.336Z,16.7
2017-09-25T08:24:15.886Z,16.7
2017-09-25T08:25:17.405Z,16.7
2017-09-25T08:26:18.947Z,16.8
2017-09-25T08:27:20.489Z,16.7
2017-09-25T08:28:22.023Z,16.8
2017-09-25T08:29:23.599Z,16.7
2017-09-25T08:30:25.094Z,16.7
2017-09-25T08:31:26.603Z,16.7
2017-09-25T08:32:28.117Z,16.8
2017-09-25T08:33:29.645Z,16.8
2017-09-25T08:34:31.177Z,16.8
2017-09-25T08:35:32.694Z,16.8
2017-09-25T08:36:34.207Z,16.7
2017-09-25T08:37:35.767Z,16.7
2017-09-25T08:38:37.282Z,16.7
2017-09-25T08:39:38.818Z,16.6
2017-09-25T08:40:40.303Z,16.7
2017-09-25T08:41:41.839Z,16.6
2017-09-25T08:42:43.386Z,16.7
2017-09-25T08:43:44.918Z,16.7
2017-09-25T08:44:46.424Z,16.7
2017-09-25T08:45:47.972Z,16.7
2017-09-25T08:46:49.523Z,16.6
2017-09-25T08:47:51.082Z,16.6
2017-09-25T08:48:52.602Z,16.7
2017-09-25T08:49:54.126Z,16.7
2017-09-25T08:50:55.666Z,16.7
2017-09-25T08:51:57.149Z,16.8
2017-09-25T08:52:58.672Z,16.8
2017-09-25T08:54:00.239Z,16.8
2017-09-25T08:55:01.790Z,16.9
2017-09-25T08:56:03.329Z,16.9
2017-09-25T08:57:04.939Z,16.9
2017-09-25T08:58:06.464Z,16.9
2017-09-25T08:59:08.002Z,16.9
2017-09-25T09:00:09.526Z,16.9
2017-09-25T09:01:11.093Z,17.0
2017-09-25T09:02:12.612Z,17.0
2017-09-25T09:03:14.157Z,17.0
2017-09-25T09:04:15.703Z,17.0
2017-09-25T09:05:17.229Z,17.0
2017-09-25T09:06:18.761Z,17.0
2017-09-25T09:07:20.338Z,17.1
2017-09-25T09:08:21.839Z,17.2
2017-09-25T09:09:23.456Z,17.3
2017-09-25T09:10:24.983Z,17.1
2017-09-25T09:11:26.531Z,17.3
2017-09-25T09:12:28.063Z,17.3
2017-09-25T09:13:29.620Z,17.3
2017-09-25T09:14:31.213Z,17.3
2017-09-25T09:15:32.720Z,17.4
2017-09-25T09:16:35.063Z,17.3
2017-09-25T09:17:36.624Z,17.3
2017-09-25T09:18:38.161Z,17.2
2017-09-25T09:19:39.719Z,17.3
2017-09-25T09:20:41.221Z,17.4
2017-09-25T09:21:42.801Z,17.5
2017-09-25T09:22:44.335Z,17.5
2017-09-25T09:23:45.852Z,17.4
2017-09-25T09:24:47.361Z,17.4
2017-09-25T09:25:48.945Z,17.4
2017-09-25T09:26:50.513Z,17.4
2017-09-25T09:27:52.063Z,17.5
2017-09-25T09:28:53.597Z,17.5
2017-09-25T09:29:55.188Z,17.4
2017-09-25T09:30:56.665Z,17.4
2017-09-25T09:31:58.249Z,17.6
2017-09-25T09:32:59.803Z,17.5
2017-09-25T09:34:01.301Z,17.7
2017-09-25T09:35:02.847Z,17.8
2017-09-25T09:36:04.399Z,17.7
2017-09-25T09:37:05.913Z,17.8
2017-09-25T09:38:07.483Z,17.8
2017-09-25T09:39:09.049Z,17.9
2017-09-25T09:40:10.575Z,17.9
2017-09-25T09:41:12.100Z,18.0
2017-09-25T09:42:13.631Z,17.8
2017-09-25T09:43:15.163Z,17.9
2017-09-25T09:44:16.699Z,18.0
2017-09-25T09:45:18.204Z,18.0
2017-09-25T09:46:19.732Z,18.0
2017-09-25T09:47:21.278Z,18.0
2017-09-25T09:48:22.828Z,17.9
2017-09-25T09:49:24.360Z,18.1
2017-09-25T09:50:25.941Z,18.1
2017-09-25T09:51:27.498Z,18.1
2017-09-25T09:52:29.027Z,18.1
2017-09-25T09:53:30.574Z,18.2
2017-09-25T09:54:32.115Z,18.2
2017-09-25T09:55:33.670Z,18.2
2017-09-25T09:56:35.218Z,18.2
2017-09-25T09:57:36.759Z,18.3
2017-09-25T09:58:38.311Z,18.3
2017-09-25T09:59:39.832Z,18.4
2017-09-25T10:00:41.374Z,18.4
2017-09-25T10:01:42.891Z,18.5
2017-09-25T10:02:44.409Z,18.6
2017-09-25T10:03:45.934Z,18.5
2017-09-25T10:04:47.450Z,18.6
2017-09-25T10:05:48.972Z,18.6
2017-09-25T10:06:50.501Z,18.5
2017-09-25T10:07:52.034Z,18.5
2017-09-25T10:08:53.550Z,18.5
2017-09-25T10:09:55.106Z,18.6
2017-09-25T10:10:56.624Z,18.5
2017-09-25T10:11:58.150Z,18.5
2017-09-25T10:12:59.663Z,18.5
2017-09-25T10:14:01.206Z,18.5
2017-09-25T10:15:02.765Z,18.5
2017-09-25T10:16:04.315Z,18.5
2017-09-25T10:17:05.846Z,18.5
2017-09-25T10:18:07.387Z,18.6
2017-09-25T10:19:09.554Z,18.5
2017-09-25T10:20:11.085Z,18.6
2017-09-25T10:21:12.693Z,18.6
2017-09-25T10:22:14.307Z,18.6
2017-09-25T10:23:15.872Z,18.6
2017-09-25T10:24:17.414Z,18.6
2017-09-25T10:25:18.969Z,18.5
2017-09-25T10:26:20.521Z,18.5
2017-09-25T10:27:22.110Z,18.5
2017-09-25T10:28:23.683Z,18.5
2017-09-25T10:29:25.277Z,18.4
2017-09-25T10:30:26.869Z,18.6
2017-09-25T10:31:28.525Z,18.5
2017-09-25T10:32:30.955Z,18.5
2017-09-25T10:33:32.521Z,18.5
2017-09-25T10:34:34.223Z,18.5
2017-09-25T10:35:35.810Z,18.5
2017-09-25T10:36:37.389Z,18.5
2017-09-25T10:37:38.918Z,18.6
2017-09-25T10:38:40.498Z,18.5
2017-09-25T10:39:42.188Z,18.7
2017-09-25T10:40:43.764Z,18.8
2017-09-25T10:41:45.359Z,18.8
2017-09-25T10:42:46.952Z,18.9
2017-09-25T10:43:48.529Z,18.8
2017-09-25T10:44:50.084Z,18.9
2017-09-25T10:45:51.680Z,19.0
2017-09-25T10:46:53.215Z,18.9
2017-09-25T10:47:54.722Z,18.8
2017-09-25T10:48:56.277Z,18.9
2017-09-25T10:49:57.809Z,18.9
2017-09-25T10:50:59.352Z,19.0
2017-09-25T10:52:00.893Z,19.0
2017-09-25T10:53:02.447Z,19.1
2017-09-25T10:54:03.967Z,19.1
2017-09-25T10:55:05.582Z,19.0
2017-09-25T10:56:07.199Z,19.0
2017-09-25T10:57:08.862Z,19.1
2017-09-25T10:58:10.442Z,19.1
2017-09-25T10:59:12.014Z,19.1
2017-09-25T11:00:13.957Z,19.1
2017-09-25T11:01:15.473Z,19.1
2017-09-25T11:02:16.987Z,19.1
2017-09-25T11:03:18.480Z,19.1
2017-09-25T11:04:19.961Z,19.1
2017-09-25T11:05:21.507Z,19.2
2017-09-25T11:06:22.954Z,19.1
2017-09-25T11:07:24.420Z,19.1
2017-09-25T11:08:25.898Z,19.2
2017-09-25T11:09:27.378Z,19.2
2017-09-25T11:10:28.875Z,19.2
2017-09-25T11:11:30.346Z,19.2
2017-09-25T11:12:31.861Z,19.2
2017-09-25T11:13:33.363Z,19.2
2017-09-25T11:14:34.842Z,19.3
2017-09-25T11:15:36.380Z,19.2
2017-09-25T11:16:37.865Z,19.3
2017-09-25T11:17:39.395Z,19.3
2017-09-25T11:18:40.921Z,19.4
2017-09-25T11:19:42.393Z,19.4
2017-09-25T11:20:43.864Z,19.4
2017-09-25T11:21:45.339Z,19.3
2017-09-25T11:22:46.815Z,19.3
2017-09-25T11:23:48.284Z,19.4
2017-09-25T11:24:49.790Z,19.4
2017-09-25T11:25:51.276Z,19.4
2017-09-25T11:26:52.744Z,19.3
2017-09-25T11:27:54.249Z,19.4
2017-09-25T11:28:55.745Z,19.4
2017-09-25T11:29:57.251Z,19.5
2017-09-25T11:30:58.744Z,19.4
2017-09-25T11:32:00.249Z,19.4
2017-09-25T11:33:01.717Z,19.5
2017-09-25T11:34:03.204Z,19.4
2017-09-25T11:35:04.718Z,19.5
2017-09-25T11:36:06.221Z,19.5
2017-09-25T11:37:07.738Z,19.5
2017-09-25T11:38:09.225Z,19.5
2017-09-25T11:39:10.676Z,19.5
2017-09-25T11:40:12.182Z,19.6
2017-09-25T11:41:13.664Z,19.5
2017-09-25T11:42:15.130Z,19.5
2017-09-25T11:43:16.604Z,19.6
2017-09-25T11:44:18.139Z,19.6
2017-09-25T11:45:20.542Z,19.8
2017-09-25T11:46:22.031Z,19.7
2017-09-25T11:47:23.508Z,19.7
2017-09-25T11:48:24.971Z,19.7
2017-09-25T11:49:26.493Z,19.7
2017-09-25T11:50:28.002Z,19.7
2017-09-25T11:51:29.477Z,19.8
2017-09-25T11:52:30.975Z,19.8
2017-09-25T11:53:32.490Z,19.9
2017-09-25T11:54:33.975Z,19.8
2017-09-25T11:55:35.443Z,19.8
2017-09-25T11:56:36.936Z,19.9
2017-09-25T11:57:38.410Z,19.9
2017-09-25T11:58:39.932Z,19.9
2017-09-25T11:59:41.405Z,20.0
2017-09-25T12:00:42.873Z,19.9
2017-09-25T12:01:44.372Z,20.0
2017-09-25T12:02:45.836Z,20.0
2017-09-25T12:03:47.314Z,20.0
2017-09-25T12:04:48.776Z,20.0
2017-09-25T12:05:50.252Z,20.1
2017-09-25T12:06:51.718Z,20.0
2017-09-25T12:07:53.212Z,20.0
2017-09-25T12:08:54.733Z,20.1
2017-09-25T12:09:56.219Z,20.1
2017-09-25T12:10:57.744Z,20.0
2017-09-25T12:11:59.239Z,20.0
2017-09-25T12:13:01.561Z,20.0
2017-09-25T12:14:03.068Z,20.0
2017-09-25T12:15:04.594Z,20.0
2017-09-25T12:16:06.061Z,20.0
2017-09-25T12:17:07.546Z,19.9
2017-09-25T12:18:09.023Z,20.0
2017-09-25T12:19:10.496Z,20.0
2017-09-25T12:20:12.000Z,20.0
2017-09-25T12:21:13.474Z,19.9
2017-09-25T12:22:14.944Z,19.9
2017-09-25T12:23:16.407Z,19.9
2017-09-25T12:24:17.911Z,19.8
2017-09-25T12:25:19.465Z,19.9
2017-09-25T12:26:21.027Z,19.8
2017-09-25T12:27:22.528Z,19.8
2017-09-25T12:28:24.057Z,19.8
2017-09-25T12:29:25.600Z,19.9
2017-09-25T12:30:27.119Z,19.8
2017-09-25T12:31:28.572Z,19.8
2017-09-25T12:32:30.023Z,19.8
2017-09-25T12:33:31.484Z,19.8
2017-09-25T12:34:32.996Z,19.8
2017-09-25T12:35:34.573Z,19.9
2017-09-25T12:36:36.139Z,19.9
2017-09-25T12:37:37.646Z,19.9
2017-09-25T12:38:39.090Z,19.9
2017-09-25T12:39:40.614Z,19.9
2017-09-25T12:40:42.057Z,19.9
2017-09-25T12:41:43.562Z,19.9
2017-09-25T12:42:45.084Z,19.8
2017-09-25T12:43:46.564Z,19.9
2017-09-25T12:44:48.079Z,19.9
2017-09-25T12:45:49.621Z,19.9
2017-09-25T12:46:51.123Z,19.8
2017-09-25T12:47:53.577Z,19.9
2017-09-25T12:48:55.099Z,19.9
2017-09-25T12:49:56.624Z,19.9
2017-09-25T12:50:58.120Z,20.0
2017-09-25T12:51:59.633Z,20.0
2017-09-25T12:53:01.162Z,20.0
2017-09-25T12:54:02.647Z,20.0
2017-09-25T12:55:04.185Z,20.0
2017-09-25T12:56:05.713Z,20.0
2017-09-25T12:57:07.243Z,20.0
2017-09-25T12:58:08.743Z,20.0
2017-09-25T12:59:10.251Z,20.1
2017-09-25T13:00:11.774Z,20.1
2017-09-25T13:01:13.253Z,20.1
2017-09-25T13:02:14.775Z,20.1
2017-09-25T13:03:16.311Z,20.1
2017-09-25T13:04:17.811Z,20.1
2017-09-25T13:05:19.373Z,20.1
2017-09-25T13:06:20.900Z,20.1
2017-09-25T13:07:22.411Z,20.2
2017-09-25T13:08:23.901Z,20.2
2017-09-25T13:09:25.441Z,20.2
2017-09-25T13:10:26.969Z,20.3
2017-09-25T13:11:28.442Z,20.2
2017-09-25T13:12:29.961Z,20.3
2017-09-25T13:13:31.485Z,20.4
2017-09-25T13:14:32.947Z,20.4
2017-09-25T13:15:34.480Z,20.5
2017-09-25T13:16:35.955Z,20.5
2017-09-25T13:17:37.457Z,20.6
2017-09-25T13:18:38.948Z,20.6
2017-09-25T13:19:40.456Z,20.6
2017-09-25T13:20:41.940Z,20.6
2017-09-25T13:21:43.415Z,20.6
2017-09-25T13:22:44.864Z,20.6
2017-09-25T13:23:46.355Z,20.6
2017-09-25T13:24:47.881Z,20.6
2017-09-25T13:25:49.414Z,20.6
2017-09-25T13:26:50.887Z,20.6
2017-09-25T13:27:52.374Z,20.6
2017-09-25T13:28:53.907Z,20.6
2017-09-25T13:29:55.420Z,20.7
2017-09-25T13:30:56.869Z,20.6
2017-09-25T13:31:58.358Z,20.6
2017-09-25T13:32:59.815Z,20.6
2017-09-25T13:34:01.260Z,20.6
2017-09-25T13:35:02.742Z,20.6
2017-09-25T13:36:04.221Z,20.6
2017-09-25T13:37:05.722Z,20.6
2017-09-25T13:38:07.193Z,20.6